sensor_id;sensor_type;location;lat;lon;timestamp;P1;durP1;ratioP1;P2;durP2;ratioP2
28653;SDS011;24320;56.980;24.336;2023-07-13T00:00:31;6.28;;;3.33;;
28653;SDS011;24320;56.980;24.336;2023-07-13T00:02:58;5.97;;;3.00;;
28653;SDS011;24320;56.980;24.336;2023-07-13T00:05:25;6.85;;;3.22;;
28653;SDS011;24320;56.980;24.336;2023-07-13T00:07:53;9.43;;;3.35;;
28653;SDS011;24320;56.980;24.336;2023-07-13T00:10:21;9.05;;;2.90;;
28653;SDS011;24320;56.980;24.336;2023-07-13T00:12:49;5.05;;;3.17;;
28653;SDS011;24320;56.980;24.336;2023-07-13T00:15:18;8.23;;;3.38;;
28653;SDS011;24320;56.980;24.336;2023-07-13T00:17:49;5.18;;;2.85;;
28653;SDS011;24320;56.980;24.336;2023-07-13T00:20:20;6.22;;;2.88;;
28653;SDS011;24320;56.980;24.336;2023-07-13T00:22:51;5.78;;;3.10;;
28653;SDS011;24320;56.980;24.336;2023-07-13T00:25:20;10.70;;;3.10;;
28653;SDS011;24320;56.980;24.336;2023-07-13T00:27:50;5.80;;;3.10;;
28653;SDS011;24320;56.980;24.336;2023-07-13T00:30:18;5.80;;;2.72;;
28653;SDS011;24320;56.980;24.336;2023-07-13T00:32:45;4.75;;;2.90;;
28653;SDS011;24320;56.980;24.336;2023-07-13T00:35:13;4.63;;;2.65;;
28653;SDS011;24320;56.980;24.336;2023-07-13T00:37:41;4.45;;;2.95;;
28653;SDS011;24320;56.980;24.336;2023-07-13T00:40:10;5.47;;;3.13;;
28653;SDS011;24320;56.980;24.336;2023-07-13T00:42:39;8.60;;;2.90;;
28653;SDS011;24320;56.980;24.336;2023-07-13T00:46:10;7.75;;;2.58;;
28653;SDS011;24320;56.980;24.336;2023-07-13T00:47:54;6.40;;;2.78;;
28653;SDS011;24320;56.980;24.336;2023-07-13T00:50:23;6.18;;;3.17;;
28653;SDS011;24320;56.980;24.336;2023-07-13T00:52:51;5.68;;;3.00;;
28653;SDS011;24320;56.980;24.336;2023-07-13T00:55:21;4.57;;;2.60;;
28653;SDS011;24320;56.980;24.336;2023-07-13T00:57:49;10.70;;;3.13;;
28653;SDS011;24320;56.980;24.336;2023-07-13T01:00:16;7.00;;;2.97;;
28653;SDS011;24320;56.980;24.336;2023-07-13T01:02:44;4.22;;;2.85;;
28653;SDS011;24320;56.980;24.336;2023-07-13T01:05:13;5.63;;;2.78;;
28653;SDS011;24320;56.980;24.336;2023-07-13T01:07:45;6.57;;;2.70;;
28653;SDS011;24320;56.980;24.336;2023-07-13T01:10:16;4.88;;;2.72;;
28653;SDS011;24320;56.980;24.336;2023-07-13T01:12:43;3.58;;;2.58;;
28653;SDS011;24320;56.980;24.336;2023-07-13T01:18:03;8.32;;;3.20;;
28653;SDS011;24320;56.980;24.336;2023-07-13T01:20:34;14.45;;;3.25;;
28653;SDS011;24320;56.980;24.336;2023-07-13T01:23:05;5.85;;;3.33;;
28653;SDS011;24320;56.980;24.336;2023-07-13T01:25:35;9.80;;;2.83;;
28653;SDS011;24320;56.980;24.336;2023-07-13T01:28:03;6.25;;;3.08;;
28653;SDS011;24320;56.980;24.336;2023-07-13T01:30:32;4.22;;;2.47;;
28653;SDS011;24320;56.980;24.336;2023-07-13T01:32:59;7.10;;;2.85;;
28653;SDS011;24320;56.980;24.336;2023-07-13T01:35:26;4.93;;;3.13;;
28653;SDS011;24320;56.980;24.336;2023-07-13T01:37:53;5.13;;;2.78;;
28653;SDS011;24320;56.980;24.336;2023-07-13T01:40:20;7.53;;;3.45;;
28653;SDS011;24320;56.980;24.336;2023-07-13T01:42:49;5.20;;;3.00;;
28653;SDS011;24320;56.980;24.336;2023-07-13T01:45:16;5.80;;;3.00;;
28653;SDS011;24320;56.980;24.336;2023-07-13T01:47:43;6.65;;;2.90;;
28653;SDS011;24320;56.980;24.336;2023-07-13T01:50:10;6.00;;;3.17;;
28653;SDS011;24320;56.980;24.336;2023-07-13T01:52:38;4.78;;;2.88;;
28653;SDS011;24320;56.980;24.336;2023-07-13T01:55:05;4.40;;;2.85;;
28653;SDS011;24320;56.980;24.336;2023-07-13T01:57:32;4.55;;;2.72;;
28653;SDS011;24320;56.980;24.336;2023-07-13T02:00:01;4.18;;;2.67;;
28653;SDS011;24320;56.980;24.336;2023-07-13T02:02:31;5.00;;;2.50;;
28653;SDS011;24320;56.980;24.336;2023-07-13T02:04:58;7.47;;;3.10;;
28653;SDS011;24320;56.980;24.336;2023-07-13T02:07:25;4.40;;;2.70;;
28653;SDS011;24320;56.980;24.336;2023-07-13T02:09:52;7.32;;;3.00;;
28653;SDS011;24320;56.980;24.336;2023-07-13T02:12:20;5.00;;;3.00;;
28653;SDS011;24320;56.980;24.336;2023-07-13T02:14:47;6.38;;;2.97;;
28653;SDS011;24320;56.980;24.336;2023-07-13T02:17:14;2.95;;;2.30;;
28653;SDS011;24320;56.980;24.336;2023-07-13T02:19:41;5.70;;;2.40;;
28653;SDS011;24320;56.980;24.336;2023-07-13T02:22:08;4.55;;;2.75;;
28653;SDS011;24320;56.980;24.336;2023-07-13T02:24:36;5.63;;;2.65;;
28653;SDS011;24320;56.980;24.336;2023-07-13T02:27:04;10.77;;;2.60;;
28653;SDS011;24320;56.980;24.336;2023-07-13T02:29:31;6.28;;;2.63;;
28653;SDS011;24320;56.980;24.336;2023-07-13T02:31:58;3.50;;;2.67;;
28653;SDS011;24320;56.980;24.336;2023-07-13T02:34:25;6.05;;;2.88;;
28653;SDS011;24320;56.980;24.336;2023-07-13T02:36:52;4.15;;;2.45;;
28653;SDS011;24320;56.980;24.336;2023-07-13T02:39:19;3.78;;;2.45;;
28653;SDS011;24320;56.980;24.336;2023-07-13T02:41:46;9.15;;;2.67;;
28653;SDS011;24320;56.980;24.336;2023-07-13T02:44:14;3.03;;;2.60;;
28653;SDS011;24320;56.980;24.336;2023-07-13T02:46:41;6.68;;;2.63;;
28653;SDS011;24320;56.980;24.336;2023-07-13T02:49:09;6.80;;;2.70;;
28653;SDS011;24320;56.980;24.336;2023-07-13T02:51:36;7.70;;;3.03;;
28653;SDS011;24320;56.980;24.336;2023-07-13T02:54:03;6.88;;;2.70;;
28653;SDS011;24320;56.980;24.336;2023-07-13T02:56:31;4.85;;;2.92;;
28653;SDS011;24320;56.980;24.336;2023-07-13T02:58:59;6.63;;;3.08;;
28653;SDS011;24320;56.980;24.336;2023-07-13T03:01:26;4.50;;;2.53;;
28653;SDS011;24320;56.980;24.336;2023-07-13T03:03:53;4.80;;;2.65;;
28653;SDS011;24320;56.980;24.336;2023-07-13T03:06:20;4.25;;;2.95;;
28653;SDS011;24320;56.980;24.336;2023-07-13T03:08:47;8.25;;;3.00;;
28653;SDS011;24320;56.980;24.336;2023-07-13T03:11:18;8.27;;;2.85;;
28653;SDS011;24320;56.980;24.336;2023-07-13T03:13:46;4.47;;;2.88;;
28653;SDS011;24320;56.980;24.336;2023-07-13T03:16:15;4.05;;;2.65;;
28653;SDS011;24320;56.980;24.336;2023-07-13T03:18:45;7.70;;;2.90;;
28653;SDS011;24320;56.980;24.336;2023-07-13T03:21:13;3.97;;;2.80;;
28653;SDS011;24320;56.980;24.336;2023-07-13T03:23:41;9.77;;;3.00;;
28653;SDS011;24320;56.980;24.336;2023-07-13T03:26:10;5.53;;;3.42;;
28653;SDS011;24320;56.980;24.336;2023-07-13T03:28:40;5.65;;;3.17;;
28653;SDS011;24320;56.980;24.336;2023-07-13T03:31:12;4.30;;;3.03;;
28653;SDS011;24320;56.980;24.336;2023-07-13T03:33:51;4.85;;;2.97;;
28653;SDS011;24320;56.980;24.336;2023-07-13T03:36:20;7.05;;;3.08;;
28653;SDS011;24320;56.980;24.336;2023-07-13T03:38:53;4.38;;;3.05;;
28653;SDS011;24320;56.980;24.336;2023-07-13T03:41:21;6.40;;;3.10;;
28653;SDS011;24320;56.980;24.336;2023-07-13T03:43:50;6.25;;;3.08;;
28653;SDS011;24320;56.980;24.336;2023-07-13T03:46:17;6.80;;;3.20;;
28653;SDS011;24320;56.980;24.336;2023-07-13T03:48:45;5.25;;;3.80;;
28653;SDS011;24320;56.980;24.336;2023-07-13T03:51:14;6.38;;;3.20;;
28653;SDS011;24320;56.980;24.336;2023-07-13T03:53:43;3.22;;;2.70;;
28653;SDS011;24320;56.980;24.336;2023-07-13T03:56:11;5.97;;;3.15;;
28653;SDS011;24320;56.980;24.336;2023-07-13T03:58:40;4.63;;;3.03;;
28653;SDS011;24320;56.980;24.336;2023-07-13T04:01:08;7.30;;;3.30;;
28653;SDS011;24320;56.980;24.336;2023-07-13T04:03:36;7.47;;;2.70;;
28653;SDS011;24320;56.980;24.336;2023-07-13T04:06:29;5.82;;;3.13;;
28653;SDS011;24320;56.980;24.336;2023-07-13T04:08:58;3.60;;;2.90;;
28653;SDS011;24320;56.980;24.336;2023-07-13T04:11:28;4.95;;;3.45;;
28653;SDS011;24320;56.980;24.336;2023-07-13T04:13:58;8.00;;;3.40;;
28653;SDS011;24320;56.980;24.336;2023-07-13T04:16:25;6.60;;;3.33;;
28653;SDS011;24320;56.980;24.336;2023-07-13T04:18:52;5.75;;;3.30;;
28653;SDS011;24320;56.980;24.336;2023-07-13T04:21:21;4.60;;;3.10;;
28653;SDS011;24320;56.980;24.336;2023-07-13T04:23:48;4.55;;;3.35;;
28653;SDS011;24320;56.980;24.336;2023-07-13T04:26:16;16.13;;;3.70;;
28653;SDS011;24320;56.980;24.336;2023-07-13T04:28:43;7.80;;;3.33;;
28653;SDS011;24320;56.980;24.336;2023-07-13T04:31:10;6.97;;;3.70;;
28653;SDS011;24320;56.980;24.336;2023-07-13T04:33:37;7.45;;;3.38;;
28653;SDS011;24320;56.980;24.336;2023-07-13T04:36:04;6.38;;;3.83;;
28653;SDS011;24320;56.980;24.336;2023-07-13T04:38:32;22.30;;;4.25;;
28653;SDS011;24320;56.980;24.336;2023-07-13T04:41:00;10.48;;;3.45;;
28653;SDS011;24320;56.980;24.336;2023-07-13T04:43:32;7.13;;;3.70;;
28653;SDS011;24320;56.980;24.336;2023-07-13T04:46:09;6.10;;;3.50;;
28653;SDS011;24320;56.980;24.336;2023-07-13T04:48:39;11.30;;;3.67;;
28653;SDS011;24320;56.980;24.336;2023-07-13T04:51:06;6.68;;;3.40;;
28653;SDS011;24320;56.980;24.336;2023-07-13T04:53:34;9.82;;;3.35;;
28653;SDS011;24320;56.980;24.336;2023-07-13T04:56:01;6.30;;;3.85;;
28653;SDS011;24320;56.980;24.336;2023-07-13T04:58:29;5.82;;;3.78;;
28653;SDS011;24320;56.980;24.336;2023-07-13T05:01:04;7.38;;;4.30;;
28653;SDS011;24320;56.980;24.336;2023-07-13T05:03:32;12.25;;;4.35;;
28653;SDS011;24320;56.980;24.336;2023-07-13T05:06:02;7.28;;;4.45;;
28653;SDS011;24320;56.980;24.336;2023-07-13T05:08:31;11.07;;;5.32;;
28653;SDS011;24320;56.980;24.336;2023-07-13T05:11:01;9.80;;;4.22;;
28653;SDS011;24320;56.980;24.336;2023-07-13T05:13:30;9.40;;;4.68;;
28653;SDS011;24320;56.980;24.336;2023-07-13T05:16:01;6.97;;;5.00;;
28653;SDS011;24320;56.980;24.336;2023-07-13T05:18:29;7.85;;;4.90;;
28653;SDS011;24320;56.980;24.336;2023-07-13T05:21:00;7.90;;;4.95;;
28653;SDS011;24320;56.980;24.336;2023-07-13T05:23:32;6.10;;;4.15;;
28653;SDS011;24320;56.980;24.336;2023-07-13T05:26:00;8.90;;;4.60;;
28653;SDS011;24320;56.980;24.336;2023-07-13T05:28:27;6.38;;;4.57;;
28653;SDS011;24320;56.980;24.336;2023-07-13T05:30:56;8.05;;;4.97;;
28653;SDS011;24320;56.980;24.336;2023-07-13T05:33:24;7.25;;;4.25;;
28653;SDS011;24320;56.980;24.336;2023-07-13T05:35:51;5.53;;;4.00;;
28653;SDS011;24320;56.980;24.336;2023-07-13T05:38:19;6.93;;;4.15;;
28653;SDS011;24320;56.980;24.336;2023-07-13T05:40:46;7.85;;;4.22;;
28653;SDS011;24320;56.980;24.336;2023-07-13T05:43:13;8.70;;;4.15;;
28653;SDS011;24320;56.980;24.336;2023-07-13T05:45:41;5.93;;;3.75;;
28653;SDS011;24320;56.980;24.336;2023-07-13T05:48:08;7.70;;;3.83;;
28653;SDS011;24320;56.980;24.336;2023-07-13T05:50:35;6.22;;;3.88;;
28653;SDS011;24320;56.980;24.336;2023-07-13T05:53:03;7.90;;;4.10;;
28653;SDS011;24320;56.980;24.336;2023-07-13T05:55:30;6.68;;;3.72;;
28653;SDS011;24320;56.980;24.336;2023-07-13T05:57:58;5.35;;;4.05;;
28653;SDS011;24320;56.980;24.336;2023-07-13T06:00:26;6.28;;;4.20;;
28653;SDS011;24320;56.980;24.336;2023-07-13T06:02:53;6.18;;;4.18;;
28653;SDS011;24320;56.980;24.336;2023-07-13T06:05:22;7.18;;;3.80;;
28653;SDS011;24320;56.980;24.336;2023-07-13T06:07:49;6.35;;;4.25;;
28653;SDS011;24320;56.980;24.336;2023-07-13T06:10:16;7.60;;;3.70;;
28653;SDS011;24320;56.980;24.336;2023-07-13T06:12:43;6.70;;;3.95;;
28653;SDS011;24320;56.980;24.336;2023-07-13T06:15:11;9.05;;;4.38;;
28653;SDS011;24320;56.980;24.336;2023-07-13T06:17:38;8.10;;;3.88;;
28653;SDS011;24320;56.980;24.336;2023-07-13T06:20:06;7.53;;;4.00;;
28653;SDS011;24320;56.980;24.336;2023-07-13T06:22:33;5.35;;;3.83;;
28653;SDS011;24320;56.980;24.336;2023-07-13T06:25:04;5.40;;;4.15;;
28653;SDS011;24320;56.980;24.336;2023-07-13T06:27:31;6.85;;;3.70;;
28653;SDS011;24320;56.980;24.336;2023-07-13T06:29:59;12.88;;;4.10;;
28653;SDS011;24320;56.980;24.336;2023-07-13T06:32:26;7.95;;;3.63;;
28653;SDS011;24320;56.980;24.336;2023-07-13T06:34:53;5.93;;;3.70;;
28653;SDS011;24320;56.980;24.336;2023-07-13T06:37:20;10.15;;;3.80;;
28653;SDS011;24320;56.980;24.336;2023-07-13T06:39:47;6.40;;;3.40;;
28653;SDS011;24320;56.980;24.336;2023-07-13T06:42:15;4.97;;;3.53;;
28653;SDS011;24320;56.980;24.336;2023-07-13T06:44:43;4.68;;;2.72;;
28653;SDS011;24320;56.980;24.336;2023-07-13T06:47:10;3.65;;;3.00;;
28653;SDS011;24320;56.980;24.336;2023-07-13T06:49:38;5.40;;;3.53;;
28653;SDS011;24320;56.980;24.336;2023-07-13T06:52:05;4.40;;;2.97;;
28653;SDS011;24320;56.980;24.336;2023-07-13T06:54:32;5.03;;;3.08;;
28653;SDS011;24320;56.980;24.336;2023-07-13T06:56:59;4.68;;;3.38;;
28653;SDS011;24320;56.980;24.336;2023-07-13T06:59:26;5.45;;;3.25;;
28653;SDS011;24320;56.980;24.336;2023-07-13T07:01:54;4.20;;;2.97;;
28653;SDS011;24320;56.980;24.336;2023-07-13T07:04:21;4.03;;;2.88;;
28653;SDS011;24320;56.980;24.336;2023-07-13T07:06:48;5.25;;;3.35;;
28653;SDS011;24320;56.980;24.336;2023-07-13T07:09:15;4.35;;;3.38;;
28653;SDS011;24320;56.980;24.336;2023-07-13T07:11:42;6.80;;;2.95;;
28653;SDS011;24320;56.980;24.336;2023-07-13T07:14:27;4.63;;;2.80;;
28653;SDS011;24320;56.980;24.336;2023-07-13T07:16:54;3.13;;;2.60;;
28653;SDS011;24320;56.980;24.336;2023-07-13T07:19:22;5.00;;;2.80;;
28653;SDS011;24320;56.980;24.336;2023-07-13T07:21:49;3.15;;;2.63;;
28653;SDS011;24320;56.980;24.336;2023-07-13T07:24:16;4.65;;;2.97;;
28653;SDS011;24320;56.980;24.336;2023-07-13T07:26:43;4.15;;;3.20;;
28653;SDS011;24320;56.980;24.336;2023-07-13T07:29:13;6.23;;;3.27;;
28653;SDS011;24320;56.980;24.336;2023-07-13T07:31:43;4.20;;;2.80;;
28653;SDS011;24320;56.980;24.336;2023-07-13T07:34:12;4.03;;;3.10;;
28653;SDS011;24320;56.980;24.336;2023-07-13T07:36:39;8.73;;;2.95;;
28653;SDS011;24320;56.980;24.336;2023-07-13T07:39:09;5.17;;;2.83;;
28653;SDS011;24320;56.980;24.336;2023-07-13T07:41:37;3.95;;;3.03;;
28653;SDS011;24320;56.980;24.336;2023-07-13T07:44:08;5.97;;;3.03;;
28653;SDS011;24320;56.980;24.336;2023-07-13T07:46:36;4.30;;;2.88;;
28653;SDS011;24320;56.980;24.336;2023-07-13T07:49:03;7.53;;;3.33;;
28653;SDS011;24320;56.980;24.336;2023-07-13T07:51:37;9.02;;;3.42;;
28653;SDS011;24320;56.980;24.336;2023-07-13T07:54:04;4.60;;;2.63;;
28653;SDS011;24320;56.980;24.336;2023-07-13T07:56:32;4.60;;;3.00;;
28653;SDS011;24320;56.980;24.336;2023-07-13T07:59:02;3.38;;;2.65;;
28653;SDS011;24320;56.980;24.336;2023-07-13T08:01:32;4.10;;;2.80;;
28653;SDS011;24320;56.980;24.336;2023-07-13T08:04:02;10.63;;;3.30;;
28653;SDS011;24320;56.980;24.336;2023-07-13T08:06:32;5.40;;;3.08;;
28653;SDS011;24320;56.980;24.336;2023-07-13T08:09:02;3.28;;;2.83;;
28653;SDS011;24320;56.980;24.336;2023-07-13T08:11:30;3.65;;;2.80;;
28653;SDS011;24320;56.980;24.336;2023-07-13T08:14:03;3.95;;;3.03;;
28653;SDS011;24320;56.980;24.336;2023-07-13T08:16:30;5.25;;;2.88;;
28653;SDS011;24320;56.980;24.336;2023-07-13T08:18:59;6.30;;;3.40;;
28653;SDS011;24320;56.980;24.336;2023-07-13T08:21:26;5.03;;;3.15;;
28653;SDS011;24320;56.980;24.336;2023-07-13T08:23:55;6.05;;;2.97;;
28653;SDS011;24320;56.980;24.336;2023-07-13T08:26:22;6.57;;;3.25;;
28653;SDS011;24320;56.980;24.336;2023-07-13T08:28:49;7.03;;;3.35;;
28653;SDS011;24320;56.980;24.336;2023-07-13T08:31:16;4.03;;;3.10;;
28653;SDS011;24320;56.980;24.336;2023-07-13T08:33:43;6.68;;;3.88;;
28653;SDS011;24320;56.980;24.336;2023-07-13T08:36:10;6.82;;;3.00;;
28653;SDS011;24320;56.980;24.336;2023-07-13T08:38:38;4.82;;;3.22;;
28653;SDS011;24320;56.980;24.336;2023-07-13T08:41:12;8.50;;;3.53;;
28653;SDS011;24320;56.980;24.336;2023-07-13T08:43:42;5.57;;;3.00;;
28653;SDS011;24320;56.980;24.336;2023-07-13T08:49:19;5.57;;;3.40;;
28653;SDS011;24320;56.980;24.336;2023-07-13T08:51:50;5.63;;;3.47;;
28653;SDS011;24320;56.980;24.336;2023-07-13T08:54:28;4.50;;;3.00;;
28653;SDS011;24320;56.980;24.336;2023-07-13T08:57:00;7.35;;;2.88;;
28653;SDS011;24320;56.980;24.336;2023-07-13T08:59:38;4.10;;;2.90;;
28653;SDS011;24320;56.980;24.336;2023-07-13T09:05:01;3.03;;;2.30;;
28653;SDS011;24320;56.980;24.336;2023-07-13T09:12:40;4.72;;;2.60;;
28653;SDS011;24320;56.980;24.336;2023-07-13T09:15:30;4.15;;;2.80;;
28653;SDS011;24320;56.980;24.336;2023-07-13T09:18:05;3.55;;;2.30;;
28653;SDS011;24320;56.980;24.336;2023-07-13T09:20:36;3.22;;;2.53;;
28653;SDS011;24320;56.980;24.336;2023-07-13T09:23:11;2.85;;;2.42;;
28653;SDS011;24320;56.980;24.336;2023-07-13T09:25:42;4.32;;;3.05;;
28653;SDS011;24320;56.980;24.336;2023-07-13T09:28:26;2.75;;;2.30;;
28653;SDS011;24320;56.980;24.336;2023-07-13T09:33:30;3.17;;;2.20;;
28653;SDS011;24320;56.980;24.336;2023-07-13T09:35:58;2.92;;;2.13;;
28653;SDS011;24320;56.980;24.336;2023-07-13T09:38:27;3.25;;;2.45;;
28653;SDS011;24320;56.980;24.336;2023-07-13T09:43:29;2.80;;;2.10;;
28653;SDS011;24320;56.980;24.336;2023-07-13T09:45:57;4.07;;;2.30;;
28653;SDS011;24320;56.980;24.336;2023-07-13T09:48:24;7.22;;;2.35;;
28653;SDS011;24320;56.980;24.336;2023-07-13T09:50:54;3.80;;;2.47;;
28653;SDS011;24320;56.980;24.336;2023-07-13T09:53:23;2.58;;;2.22;;
28653;SDS011;24320;56.980;24.336;2023-07-13T09:55:50;2.05;;;1.85;;
28653;SDS011;24320;56.980;24.336;2023-07-13T09:58:24;2.13;;;1.80;;
28653;SDS011;24320;56.980;24.336;2023-07-13T10:00:54;2.42;;;2.10;;
28653;SDS011;24320;56.980;24.336;2023-07-13T10:03:25;2.38;;;2.17;;
28653;SDS011;24320;56.980;24.336;2023-07-13T10:05:54;2.47;;;2.15;;
28653;SDS011;24320;56.980;24.336;2023-07-13T10:08:27;3.88;;;2.35;;
28653;SDS011;24320;56.980;24.336;2023-07-13T10:11:01;2.58;;;1.98;;
28653;SDS011;24320;56.980;24.336;2023-07-13T10:13:45;3.50;;;2.00;;
28653;SDS011;24320;56.980;24.336;2023-07-13T10:16:17;2.67;;;2.05;;
28653;SDS011;24320;56.980;24.336;2023-07-13T10:18:46;2.72;;;2.15;;
28653;SDS011;24320;56.980;24.336;2023-07-13T10:21:20;6.35;;;2.80;;
28653;SDS011;24320;56.980;24.336;2023-07-13T10:23:52;2.72;;;1.98;;
28653;SDS011;24320;56.980;24.336;2023-07-13T10:26:26;2.22;;;2.00;;
28653;SDS011;24320;56.980;24.336;2023-07-13T10:28:59;3.33;;;1.65;;
28653;SDS011;24320;56.980;24.336;2023-07-13T10:31:31;2.58;;;1.83;;
28653;SDS011;24320;56.980;24.336;2023-07-13T10:33:58;2.42;;;1.40;;
28653;SDS011;24320;56.980;24.336;2023-07-13T10:38:59;2.80;;;1.98;;
28653;SDS011;24320;56.980;24.336;2023-07-13T10:41:29;1.80;;;1.52;;
28653;SDS011;24320;56.980;24.336;2023-07-13T10:44:00;2.47;;;1.88;;
28653;SDS011;24320;56.980;24.336;2023-07-13T10:46:28;2.20;;;1.60;;
28653;SDS011;24320;56.980;24.336;2023-07-13T10:48:57;1.25;;;1.15;;
28653;SDS011;24320;56.980;24.336;2023-07-13T10:51:28;4.80;;;1.80;;
28653;SDS011;24320;56.980;24.336;2023-07-13T10:54:15;2.00;;;1.52;;
28653;SDS011;24320;56.980;24.336;2023-07-13T10:56:53;4.40;;;1.80;;
28653;SDS011;24320;56.980;24.336;2023-07-13T10:59:43;1.60;;;1.50;;
28653;SDS011;24320;56.980;24.336;2023-07-13T11:02:22;3.20;;;1.20;;
28653;SDS011;24320;56.980;24.336;2023-07-13T11:04:55;3.22;;;1.40;;
28653;SDS011;24320;56.980;24.336;2023-07-13T11:07:28;4.43;;;1.35;;
28653;SDS011;24320;56.980;24.336;2023-07-13T11:09:57;3.08;;;1.30;;
28653;SDS011;24320;56.980;24.336;2023-07-13T11:15:26;1.75;;;1.20;;
28653;SDS011;24320;56.980;24.336;2023-07-13T11:20:34;2.85;;;1.25;;
28653;SDS011;24320;56.980;24.336;2023-07-13T11:23:16;3.10;;;1.20;;
28653;SDS011;24320;56.980;24.336;2023-07-13T11:25:46;3.13;;;1.40;;
28653;SDS011;24320;56.980;24.336;2023-07-13T11:28:16;2.55;;;1.30;;
28653;SDS011;24320;56.980;24.336;2023-07-13T11:36:18;2.80;;;1.10;;
28653;SDS011;24320;56.980;24.336;2023-07-13T11:38:56;2.08;;;1.17;;
28653;SDS011;24320;56.980;24.336;2023-07-13T11:41:37;3.92;;;1.70;;
28653;SDS011;24320;56.980;24.336;2023-07-13T11:44:31;2.00;;;1.20;;
28653;SDS011;24320;56.980;24.336;2023-07-13T11:47:07;1.58;;;1.10;;
28653;SDS011;24320;56.980;24.336;2023-07-13T11:49:44;1.40;;;1.30;;
28653;SDS011;24320;56.980;24.336;2023-07-13T11:52:15;1.85;;;1.50;;
28653;SDS011;24320;56.980;24.336;2023-07-13T11:54:48;1.73;;;1.20;;
28653;SDS011;24320;56.980;24.336;2023-07-13T11:57:29;1.30;;;1.20;;
28653;SDS011;24320;56.980;24.336;2023-07-13T12:02:45;7.63;;;1.70;;
28653;SDS011;24320;56.980;24.336;2023-07-13T12:05:18;2.30;;;1.50;;
28653;SDS011;24320;56.980;24.336;2023-07-13T12:07:49;1.65;;;1.38;;
28653;SDS011;24320;56.980;24.336;2023-07-13T12:10:23;5.47;;;1.90;;
28653;SDS011;24320;56.980;24.336;2023-07-13T12:12:56;2.53;;;1.30;;
28653;SDS011;24320;56.980;24.336;2023-07-13T12:15:37;2.53;;;1.50;;
28653;SDS011;24320;56.980;24.336;2023-07-13T12:18:13;1.30;;;1.13;;
28653;SDS011;24320;56.980;24.336;2023-07-13T12:20:48;4.07;;;1.67;;
28653;SDS011;24320;56.980;24.336;2023-07-13T12:23:23;3.00;;;1.27;;
28653;SDS011;24320;56.980;24.336;2023-07-13T12:25:54;1.30;;;1.20;;
28653;SDS011;24320;56.980;24.336;2023-07-13T12:29:11;1.77;;;1.38;;
28653;SDS011;24320;56.980;24.336;2023-07-13T12:34:06;2.35;;;1.52;;
28653;SDS011;24320;56.980;24.336;2023-07-13T12:36:35;3.25;;;1.58;;
28653;SDS011;24320;56.980;24.336;2023-07-13T12:39:06;5.63;;;2.10;;
28653;SDS011;24320;56.980;24.336;2023-07-13T12:41:40;4.45;;;1.40;;
28653;SDS011;24320;56.980;24.336;2023-07-13T12:44:11;4.60;;;2.20;;
28653;SDS011;24320;56.980;24.336;2023-07-13T12:46:51;1.92;;;1.33;;
28653;SDS011;24320;56.980;24.336;2023-07-13T12:51:59;2.80;;;1.30;;
28653;SDS011;24320;56.980;24.336;2023-07-13T12:54:27;1.60;;;1.30;;
28653;SDS011;24320;56.980;24.336;2023-07-13T12:56:55;4.22;;;1.45;;
28653;SDS011;24320;56.980;24.336;2023-07-13T12:59:25;1.33;;;1.05;;
28653;SDS011;24320;56.980;24.336;2023-07-13T13:01:56;1.50;;;1.30;;
28653;SDS011;24320;56.980;24.336;2023-07-13T13:04:25;1.30;;;1.10;;
28653;SDS011;24320;56.980;24.336;2023-07-13T13:07:02;2.25;;;1.00;;
28653;SDS011;24320;56.980;24.336;2023-07-13T13:09:30;3.55;;;1.20;;
28653;SDS011;24320;56.980;24.336;2023-07-13T13:11:57;2.65;;;1.30;;
28653;SDS011;24320;56.980;24.336;2023-07-13T13:14:25;2.47;;;1.13;;
28653;SDS011;24320;56.980;24.336;2023-07-13T13:16:52;7.05;;;1.20;;
28653;SDS011;24320;56.980;24.336;2023-07-13T13:19:21;1.20;;;1.02;;
28653;SDS011;24320;56.980;24.336;2023-07-13T13:24:21;1.70;;;1.40;;
28653;SDS011;24320;56.980;24.336;2023-07-13T13:26:51;1.85;;;1.30;;
28653;SDS011;24320;56.980;24.336;2023-07-13T13:29:21;1.33;;;1.00;;
28653;SDS011;24320;56.980;24.336;2023-07-13T13:31:51;3.35;;;1.75;;
28653;SDS011;24320;56.980;24.336;2023-07-13T13:34:20;2.30;;;0.98;;
28653;SDS011;24320;56.980;24.336;2023-07-13T13:36:51;1.38;;;1.13;;
28653;SDS011;24320;56.980;24.336;2023-07-13T13:39:33;4.43;;;1.13;;
28653;SDS011;24320;56.980;24.336;2023-07-13T13:42:02;1.95;;;1.30;;
28653;SDS011;24320;56.980;24.336;2023-07-13T13:44:29;1.23;;;1.10;;
28653;SDS011;24320;56.980;24.336;2023-07-13T13:46:56;1.10;;;1.00;;
28653;SDS011;24320;56.980;24.336;2023-07-13T13:52:03;2.25;;;1.30;;
28653;SDS011;24320;56.980;24.336;2023-07-13T13:54:31;4.97;;;1.27;;
28653;SDS011;24320;56.980;24.336;2023-07-13T13:56:58;1.40;;;1.30;;
28653;SDS011;24320;56.980;24.336;2023-07-13T13:59:26;3.83;;;1.58;;
28653;SDS011;24320;56.980;24.336;2023-07-13T14:01:53;3.50;;;1.63;;
28653;SDS011;24320;56.980;24.336;2023-07-13T14:04:21;2.60;;;1.58;;
28653;SDS011;24320;56.980;24.336;2023-07-13T14:06:48;3.10;;;1.40;;
28653;SDS011;24320;56.980;24.336;2023-07-13T14:09:16;3.20;;;1.45;;
28653;SDS011;24320;56.980;24.336;2023-07-13T14:11:46;12.73;;;1.57;;
28653;SDS011;24320;56.980;24.336;2023-07-13T14:14:20;2.63;;;1.65;;
28653;SDS011;24320;56.980;24.336;2023-07-13T14:16:50;2.17;;;1.80;;
28653;SDS011;24320;56.980;24.336;2023-07-13T14:19:21;5.25;;;2.00;;
28653;SDS011;24320;56.980;24.336;2023-07-13T14:21:49;2.92;;;1.85;;
28653;SDS011;24320;56.980;24.336;2023-07-13T14:24:19;3.75;;;1.83;;
28653;SDS011;24320;56.980;24.336;2023-07-13T14:26:47;2.78;;;1.90;;
28653;SDS011;24320;56.980;24.336;2023-07-13T14:29:15;2.58;;;1.58;;
28653;SDS011;24320;56.980;24.336;2023-07-13T14:31:47;4.20;;;1.60;;
28653;SDS011;24320;56.980;24.336;2023-07-13T14:34:14;4.38;;;1.70;;
28653;SDS011;24320;56.980;24.336;2023-07-13T14:36:42;2.42;;;1.55;;
28653;SDS011;24320;56.980;24.336;2023-07-13T14:41:44;2.78;;;1.60;;
28653;SDS011;24320;56.980;24.336;2023-07-13T14:44:15;4.15;;;1.70;;
28653;SDS011;24320;56.980;24.336;2023-07-13T14:46:44;2.72;;;1.50;;
28653;SDS011;24320;56.980;24.336;2023-07-13T14:49:15;6.47;;;1.65;;
28653;SDS011;24320;56.980;24.336;2023-07-13T14:51:56;2.28;;;1.30;;
28653;SDS011;24320;56.980;24.336;2023-07-13T14:54:27;2.90;;;1.58;;
28653;SDS011;24320;56.980;24.336;2023-07-13T14:56:54;3.45;;;1.45;;
28653;SDS011;24320;56.980;24.336;2023-07-13T14:59:21;1.58;;;1.35;;
28653;SDS011;24320;56.980;24.336;2023-07-13T15:01:49;3.92;;;1.58;;
28653;SDS011;24320;56.980;24.336;2023-07-13T15:04:17;3.88;;;1.60;;
28653;SDS011;24320;56.980;24.336;2023-07-13T15:06:55;2.20;;;1.30;;
28653;SDS011;24320;56.980;24.336;2023-07-13T15:09:24;2.42;;;1.48;;
28653;SDS011;24320;56.980;24.336;2023-07-13T15:11:54;4.55;;;1.95;;
28653;SDS011;24320;56.980;24.336;2023-07-13T15:14:22;3.78;;;1.48;;
28653;SDS011;24320;56.980;24.336;2023-07-13T15:16:51;2.35;;;1.30;;
28653;SDS011;24320;56.980;24.336;2023-07-13T15:19:22;4.43;;;1.52;;
28653;SDS011;24320;56.980;24.336;2023-07-13T15:21:50;3.05;;;1.20;;
28653;SDS011;24320;56.980;24.336;2023-07-13T15:24:18;3.38;;;1.30;;
28653;SDS011;24320;56.980;24.336;2023-07-13T15:26:47;4.22;;;1.40;;
28653;SDS011;24320;56.980;24.336;2023-07-13T15:29:16;1.67;;;1.45;;
28653;SDS011;24320;56.980;24.336;2023-07-13T15:31:43;3.35;;;1.40;;
28653;SDS011;24320;56.980;24.336;2023-07-13T15:34:24;2.67;;;1.23;;
28653;SDS011;24320;56.980;24.336;2023-07-13T15:36:52;6.13;;;1.50;;